Time;durP1;ratioP1;P1;durP2;ratioP2;P2;SDS_P1;SDS_P2;PMS_P1;PMS_P2;Temp;Humidity;BMP_temperature;BMP_pressure;BME280_temperature;BME280_humidity;BME280_pressure;Samples;Min_cycle;Max_cycle;Signal;HPM_P1;HPM_P2
2021/07/25 00:01:44;;;;;;;19.52;13.32;;;20.80;99.90;;;;;;4152113;28;20091;-73
2021/07/25 00:03:45;;;;;;;19.88;11.82;;;20.80;99.90;;;;;;4150207;28;20077;-73
2021/07/25 00:05:45;;;;;;;16.40;12.45;;;20.70;99.90;;;;;;4155252;28;20029;-73
2021/07/25 00:07:46;;;;;;;17.45;13.13;;;20.80;99.90;;;;;;4144357;28;20131;-73
2021/07/25 00:09:47;;;;;;;17.35;12.00;;;20.80;99.90;;;;;;4147025;28;20045;-73
2021/07/25 00:11:47;;;;;;;18.63;13.00;;;20.80;99.90;;;;;;4145179;28;20045;-73
2021/07/25 00:13:52;;;;;;;20.80;12.70;;;20.80;99.90;;;;;;4133914;28;20029;-73
2021/07/25 00:15:52;;;;;;;16.70;12.18;;;20.80;99.90;;;;;;4147087;28;20129;-73
2021/07/25 00:17:53;;;;;;;19.67;13.05;;;20.70;99.90;;;;;;4148627;28;20537;-73
2021/07/25 00:19:53;;;;;;;18.85;12.85;;;20.80;99.90;;;;;;4149944;28;20042;-73
2021/07/25 00:21:54;;;;;;;18.70;12.70;;;20.80;99.90;;;;;;4147277;28;20038;-73
2021/07/25 00:23:58;;;;;;;17.48;12.50;;;20.80;99.90;;;;;;4150722;28;20030;-73
2021/07/25 00:26:00;;;;;;;19.23;12.45;;;20.80;99.90;;;;;;4144251;28;20479;-73
2021/07/25 00:28:01;;;;;;;20.00;13.25;;;20.80;99.90;;;;;;4149139;28;20060;-73
2021/07/25 00:30:01;;;;;;;16.85;12.10;;;20.80;99.90;;;;;;4146569;28;20421;-73
2021/07/25 00:32:04;;;;;;;16.92;10.85;;;20.80;99.90;;;;;;4148300;28;20037;-73
2021/07/25 00:34:05;;;;;;;17.58;11.75;;;20.70;99.90;;;;;;4131119;28;20057;-73
2021/07/25 00:36:06;;;;;;;18.45;12.80;;;20.80;99.90;;;;;;4154129;28;20038;-73
2021/07/25 00:38:07;;;;;;;20.10;13.43;;;20.70;99.90;;;;;;4152714;28;20131;-73
2021/07/25 00:40:11;;;;;;;16.25;11.63;;;20.70;99.90;;;;;;4146141;28;20038;-73
2021/07/25 00:42:11;;;;;;;16.55;11.27;;;20.70;99.90;;;;;;4152084;28;20038;-73
2021/07/25 00:44:12;;;;;;;16.60;11.63;;;20.70;99.90;;;;;;4113274;28;20046;-73
2021/07/25 00:46:14;;;;;;;15.75;12.57;;;20.70;99.90;;;;;;4143395;28;20052;-73
2021/07/25 00:48:14;;;;;;;18.15;12.15;;;20.60;99.90;;;;;;4130751;28;20042;-73
2021/07/25 00:50:17;;;;;;;15.20;11.45;;;20.60;99.90;;;;;;4150811;28;20106;-73
2021/07/25 00:52:17;;;;;;;15.63;11.15;;;20.60;99.90;;;;;;4145917;28;20084;-73
2021/07/25 00:54:19;;;;;;;18.23;12.43;;;20.60;99.90;;;;;;4153623;28;20029;-73
2021/07/25 00:56:20;;;;;;;18.98;10.98;;;20.50;99.90;;;;;;4131434;28;20543;-72
2021/07/25 00:58:21;;;;;;;15.65;11.75;;;20.50;99.90;;;;;;4151446;28;20041;-73
2021/07/25 01:00:21;;;;;;;14.45;10.98;;;20.50;99.90;;;;;;4150296;28;20041;-73
2021/07/25 01:02:28;;;;;;;17.08;10.27;;;20.50;99.90;;;;;;4142782;28;20076;-72
2021/07/25 01:04:45;;;;;;;15.30;10.43;;;20.50;99.90;;;;;;4151928;28;20140;-74
2021/07/25 01:07:03;;;;;;;15.07;10.88;;;20.50;99.90;;;;;;4144062;28;20112;-73
2021/07/25 01:09:10;;;;;;;15.18;9.60;;;20.40;99.90;;;;;;4148858;28;20139;-73
2021/07/25 01:11:13;;;;;;;14.40;10.02;;;20.40;99.90;;;;;;4128486;28;20550;-73
2021/07/25 01:13:16;;;;;;;;;;;20.40;99.90;;;;;;4143717;28;20540;-73
2021/07/25 01:15:23;;;;;;;15.32;10.43;;;20.40;99.90;;;;;;4145600;28;19944;-73
2021/07/25 01:17:37;;;;;;;12.95;9.63;;;20.40;99.90;;;;;;4149568;28;20038;-73
2021/07/25 01:19:37;;;;;;;14.55;10.60;;;20.30;99.90;;;;;;4142307;28;20041;-73
2021/07/25 01:21:39;;;;;;;14.63;10.88;;;20.30;99.90;;;;;;4140035;28;20026;-73
2021/07/25 01:23:40;;;;;;;16.77;10.50;;;20.30;99.90;;;;;;4124184;28;20066;-73
2021/07/25 01:25:42;;;;;;;19.52;11.43;;;20.20;99.90;;;;;;4137540;28;20033;-73
2021/07/25 01:28:05;;;;;;;15.70;10.85;;;20.20;99.90;;;;;;4143827;28;20041;-73
2021/07/25 01:30:11;;;;;;;15.75;11.02;;;20.20;99.90;;;;;;4136806;28;20603;-73
2021/07/25 01:32:12;;;;;;;14.73;10.27;;;20.20;99.90;;;;;;4145443;28;20029;-72
2021/07/25 01:34:13;;;;;;;12.85;8.88;;;20.20;99.90;;;;;;4139978;28;20041;-72
2021/07/25 01:36:14;;;;;;;17.20;9.88;;;20.20;99.90;;;;;;4141145;28;20064;-73
2021/07/25 01:38:15;;;;;;;13.15;10.13;;;20.20;99.90;;;;;;4148908;28;20128;-73
2021/07/25 01:40:22;;;;;;;15.55;10.25;;;20.20;99.90;;;;;;4130007;28;20046;-73
2021/07/25 01:42:30;;;;;;;14.23;10.30;;;20.20;99.90;;;;;;4149197;28;20509;-73
2021/07/25 01:44:31;;;;;;;14.52;10.70;;;20.20;99.90;;;;;;4143201;28;20041;-73
2021/07/25 01:46:40;;;;;;;15.60;10.43;;;20.10;99.90;;;;;;4133582;28;20034;-73
2021/07/25 01:48:44;;;;;;;19.52;11.38;;;20.10;99.90;;;;;;4142980;28;20034;-73
2021/07/25 01:50:45;;;;;;;15.13;10.38;;;20.10;99.90;;;;;;4146505;28;20128;-73
2021/07/25 01:52:46;;;;;;;15.18;10.30;;;20.00;99.90;;;;;;4127230;28;20586;-73
2021/07/25 01:54:46;;;;;;;15.70;10.93;;;20.00;99.90;;;;;;4132518;28;20038;-73
2021/07/25 01:56:47;;;;;;;17.55;10.20;;;20.00;99.90;;;;;;4133207;28;20077;-72
2021/07/25 01:58:47;;;;;;;14.48;10.02;;;20.00;99.90;;;;;;4146586;28;20083;-73
2021/07/25 02:00:49;;;;;;;14.77;10.25;;;20.00;99.90;;;;;;4142664;28;20833;-73
2021/07/25 02:02:50;;;;;;;13.73;9.65;;;20.00;99.90;;;;;;4144554;28;20057;-73
2021/07/25 02:04:51;;;;;;;12.68;9.07;;;20.00;99.90;;;;;;4108673;28;20464;-73
2021/07/25 02:06:51;;;;;;;18.70;10.13;;;20.00;99.90;;;;;;4143809;28;20679;-73
2021/07/25 02:08:52;;;;;;;12.68;8.93;;;19.90;99.90;;;;;;4134877;28;20042;-72
2021/07/25 02:10:53;;;;;;;15.02;8.85;;;19.90;99.90;;;;;;4147024;28;20498;-73
2021/07/25 02:12:53;;;;;;;15.00;9.15;;;19.90;99.90;;;;;;4150710;28;20033;-73
2021/07/25 02:14:54;;;;;;;15.25;10.00;;;19.90;99.90;;;;;;4149155;28;20146;-73
2021/07/25 02:16:55;;;;;;;19.45;8.75;;;19.80;99.90;;;;;;4131733;28;20057;-73
2021/07/25 02:18:55;;;;;;;13.65;9.15;;;19.70;99.90;;;;;;4127618;28;20042;-73
2021/07/25 02:20:56;;;;;;;13.80;9.13;;;19.70;99.90;;;;;;4149354;28;20034;-73
2021/07/25 02:22:56;;;;;;;11.82;8.57;;;19.70;99.90;;;;;;4130697;28;20114;-73
2021/07/25 02:24:57;;;;;;;14.38;9.48;;;19.70;99.90;;;;;;4133312;28;20469;-73
2021/07/25 02:26:58;;;;;;;11.50;8.43;;;19.70;99.90;;;;;;4149853;28;20033;-73
2021/07/25 02:28:58;;;;;;;12.68;8.65;;;19.70;99.90;;;;;;4127428;28;20499;-73
2021/07/25 02:30:59;;;;;;;10.75;8.40;;;19.70;99.90;;;;;;4149560;28;20132;-73
2021/07/25 02:32:59;;;;;;;14.88;9.45;;;19.70;99.90;;;;;;4116574;28;20061;-73
2021/07/25 02:35:00;;;;;;;12.98;8.77;;;19.70;99.90;;;;;;4129517;28;20042;-73
2021/07/25 02:37:00;;;;;;;12.13;8.95;;;19.70;99.90;;;;;;4148451;28;20045;-73
2021/07/25 02:39:01;;;;;;;14.23;9.55;;;19.70;99.90;;;;;;4132595;28;20046;-73
2021/07/25 02:41:02;;;;;;;13.60;8.30;;;19.60;99.90;;;;;;4151459;28;20096;-72
2021/07/25 02:43:02;;;;;;;12.23;9.05;;;19.70;99.90;;;;;;4149243;28;20122;-73
2021/07/25 02:45:03;;;;;;;12.73;8.55;;;19.60;99.90;;;;;;4145219;28;20410;-73
2021/07/25 02:47:04;;;;;;;11.38;8.60;;;19.60;99.90;;;;;;4149787;28;20858;-73
2021/07/25 02:49:05;;;;;;;13.20;9.10;;;19.60;99.90;;;;;;4154830;28;20033;-73
2021/07/25 02:51:05;;;;;;;11.77;8.85;;;19.60;99.90;;;;;;4149848;28;20072;-72
2021/07/25 02:53:06;;;;;;;14.43;8.88;;;19.60;99.90;;;;;;4128417;28;20088;-73
2021/07/25 02:55:07;;;;;;;10.70;8.32;;;19.60;99.90;;;;;;4145364;28;20045;-73
2021/07/25 02:57:08;;;;;;;10.85;8.50;;;19.60;99.90;;;;;;4147396;28;20046;-73
2021/07/25 02:59:08;;;;;;;12.40;8.52;;;19.60;99.90;;;;;;4152625;28;20062;-73
2021/07/25 03:01:18;;;;;;;11.93;8.30;;;19.60;99.90;;;;;;4152468;28;20052;-73
2021/07/25 03:03:19;;;;;;;10.73;7.70;;;19.60;99.90;;;;;;4146183;28;20053;-73
2021/07/25 03:05:19;;;;;;;12.93;9.18;;;19.70;99.90;;;;;;4149020;28;20041;-73
2021/07/25 03:07:20;;;;;;;10.63;7.70;;;19.70;99.90;;;;;;4154374;28;20096;-73
2021/07/25 03:09:20;;;;;;;11.70;8.55;;;19.70;99.90;;;;;;4133107;28;20510;-73
2021/07/25 03:11:21;;;;;;;13.23;8.48;;;19.70;99.90;;;;;;4152612;28;20034;-73
2021/07/25 03:13:22;;;;;;;13.35;8.73;;;19.80;99.90;;;;;;4154219;28;20528;-73
2021/07/25 03:15:23;;;;;;;11.43;8.38;;;19.70;99.90;;;;;;4150094;28;20038;-73
2021/07/25 03:17:23;;;;;;;14.80;8.80;;;19.70;99.90;;;;;;4152178;28;20429;-73
2021/07/25 03:19:24;;;;;;;16.27;8.95;;;19.60;99.90;;;;;;4147929;28;20034;-72
2021/07/25 03:21:25;;;;;;;11.52;8.32;;;19.60;99.90;;;;;;4129365;28;20121;-73
2021/07/25 03:23:25;;;;;;;13.95;9.25;;;19.60;99.90;;;;;;4150665;28;20092;-73
2021/07/25 03:25:26;;;;;;;11.75;8.98;;;19.60;99.90;;;;;;4127424;28;20046;-73
2021/07/25 03:27:28;;;;;;;11.65;8.52;;;19.60;99.90;;;;;;4149299;28;20045;-73
2021/07/25 03:29:28;;;;;;;10.68;8.63;;;19.60;99.90;;;;;;4148134;28;20044;-73
2021/07/25 03:31:29;;;;;;;19.35;9.30;;;19.60;99.90;;;;;;4148112;28;20053;-72
2021/07/25 03:33:30;;;;;;;15.02;8.90;;;19.60;99.90;;;;;;4148930;28;20034;-72
2021/07/25 03:35:30;;;;;;;12.95;9.43;;;19.60;99.90;;;;;;4144499;28;20045;-73
2021/07/25 03:37:31;;;;;;;12.75;8.52;;;19.60;99.90;;;;;;4127637;28;20646;-73
2021/07/25 03:39:32;;;;;;;11.07;7.95;;;19.60;99.90;;;;;;4129280;28;20042;-73
2021/07/25 03:41:32;;;;;;;9.52;7.38;;;19.60;99.90;;;;;;4144549;28;20453;-73
2021/07/25 03:43:33;;;;;;;11.18;8.35;;;19.60;99.90;;;;;;4150538;28;20473;-73
2021/07/25 03:45:35;;;;;;;12.25;8.00;;;19.70;99.90;;;;;;4145964;28;20050;-73
2021/07/25 03:47:38;;;;;;;10.95;7.70;;;19.70;99.90;;;;;;4142580;28;20125;-72
2021/07/25 03:49:39;;;;;;;14.82;8.65;;;19.70;99.90;;;;;;4134544;28;20567;-73
2021/07/25 03:51:40;;;;;;;11.05;7.97;;;19.70;99.90;;;;;;4134545;28;20058;-73
2021/07/25 03:53:41;;;;;;;13.45;9.05;;;19.70;99.90;;;;;;4152938;28;20036;-73
2021/07/25 03:55:45;;;;;;;11.32;8.25;;;19.70;99.90;;;;;;4145823;28;20127;-73
2021/07/25 03:57:46;;;;;;;11.88;8.23;;;19.70;99.90;;;;;;4143063;28;20113;-72
2021/07/25 03:59:46;;;;;;;13.30;9.13;;;19.70;99.90;;;;;;4132231;28;20067;-73
2021/07/25 04:01:47;;;;;;;13.25;8.93;;;19.60;99.90;;;;;;4150218;28;20029;-73
2021/07/25 04:03:47;;;;;;;11.07;8.38;;;19.60;99.90;;;;;;4135204;28;20526;-73
2021/07/25 04:05:48;;;;;;;13.05;8.38;;;19.60;99.90;;;;;;4149444;28;20034;-73
2021/07/25 04:07:49;;;;;;;11.75;8.88;;;19.50;99.90;;;;;;4144096;28;20398;-73
2021/07/25 04:09:49;;;;;;;11.77;8.55;;;19.50;99.90;;;;;;4132308;28;20046;-73
2021/07/25 04:11:57;;;;;;;10.40;8.00;;;19.40;99.90;;;;;;4152819;28;20274;-73
2021/07/25 04:13:58;;;;;;;14.38;8.35;;;19.40;99.90;;;;;;4113193;28;20034;-72
2021/07/25 04:15:58;;;;;;;11.50;8.50;;;19.40;99.90;;;;;;4148403;28;20030;-73
2021/07/25 04:17:59;;;;;;;14.18;8.95;;;19.40;99.90;;;;;;4145899;28;20048;-73
2021/07/25 04:20:00;;;;;;;12.40;9.10;;;19.40;99.90;;;;;;4111153;28;20415;-73
2021/07/25 04:22:02;;;;;;;11.55;8.88;;;19.40;99.90;;;;;;4129727;28;20042;-73
2021/07/25 04:24:03;;;;;;;11.25;8.60;;;19.30;99.90;;;;;;4152402;28;20034;-73
2021/07/25 04:26:03;;;;;;;12.05;8.20;;;19.30;99.90;;;;;;4130054;28;20038;-73
2021/07/25 04:28:05;;;;;;;21.00;9.27;;;19.30;99.90;;;;;;4128378;28;20034;-73
2021/07/25 04:30:06;;;;;;;13.07;8.85;;;19.30;99.90;;;;;;4126423;28;20046;-73
2021/07/25 04:32:07;;;;;;;13.15;8.60;;;19.30;99.90;;;;;;4110433;28;20423;-72
2021/07/25 04:34:08;;;;;;;16.08;8.90;;;19.30;99.90;;;;;;4133552;28;20121;-73
2021/07/25 04:36:13;;;;;;;13.77;8.95;;;19.30;99.90;;;;;;4152503;28;20117;-73
2021/07/25 04:38:14;;;;;;;13.65;8.55;;;19.30;99.90;;;;;;4146544;28;20042;-73
2021/07/25 04:40:17;;;;;;;15.70;9.52;;;19.30;99.90;;;;;;4153002;28;20046;-73
2021/07/25 04:42:20;;;;;;;;;;;19.30;99.90;;;;;;4152310;28;20046;-73
2021/07/25 04:44:32;;;;;;;11.20;8.18;;;19.30;99.90;;;;;;4149658;28;20338;-73
2021/07/25 04:46:34;;;;;;;11.65;7.97;;;19.30;99.90;;;;;;4151622;28;20033;-72
2021/07/25 04:48:59;;;;;;;15.65;8.55;;;19.30;99.90;;;;;;4121609;28;20733;-72
2021/07/25 04:51:06;;;;;;;14.77;9.38;;;19.30;99.90;;;;;;4146324;28;20041;-73
2021/07/25 04:53:16;;;;;;;14.63;9.85;;;19.30;99.90;;;;;;4145493;28;20057;-72
2021/07/25 04:55:24;;;;;;;17.35;8.95;;;19.30;99.90;;;;;;4147346;28;20091;-72
2021/07/25 04:57:26;;;;;;;12.73;9.05;;;19.30;99.90;;;;;;4149335;28;20489;-73
2021/07/25 04:59:47;;;;;;;13.32;9.45;;;19.30;99.90;;;;;;4150833;28;20108;-72
2021/07/25 05:01:50;;;;;;;10.50;7.80;;;19.30;99.90;;;;;;4152683;28;20083;-72
2021/07/25 05:03:51;;;;;;;;;;;19.30;99.90;;;;;;4157495;28;20053;-72
2021/07/25 05:05:55;;;;;;;9.73;7.18;;;19.30;99.90;;;;;;4148080;28;19910;-72
2021/07/25 05:07:59;;;;;;;12.05;8.15;;;19.40;99.90;;;;;;4140517;28;20045;-72
2021/07/25 05:10:00;;;;;;;12.77;8.10;;;19.40;99.90;;;;;;4154592;28;20044;-72
2021/07/25 05:12:19;;;;;;;11.18;7.60;;;19.40;99.90;;;;;;4130892;28;20772;-72
2021/07/25 05:14:30;;;;;;;11.52;7.55;;;19.40;99.90;;;;;;4131814;28;20120;-72
2021/07/25 05:16:39;;;;;;;12.05;8.00;;;19.40;99.90;;;;;;4134507;28;20026;-72
2021/07/25 05:18:45;;;;;;;12.40;7.95;;;19.50;99.90;;;;;;4152392;28;20037;-74
2021/07/25 05:21:29;;;;;;;10.02;7.00;;;19.40;99.90;;;;;;4139248;28;20112;-73
2021/07/25 05:23:43;;;;;;;11.93;7.38;;;19.50;99.90;;;;;;4137092;28;20034;-73
2021/07/25 05:25:52;;;;;;;12.57;7.75;;;19.50;99.90;;;;;;4147925;28;20041;-73
2021/07/25 05:27:54;;;;;;;12.32;7.78;;;19.60;99.90;;;;;;4136641;28;20042;-73
2021/07/25 05:29:55;;;;;;;13.40;7.70;;;19.60;99.90;;;;;;4146416;28;20041;-73
2021/07/25 05:31:56;;;;;;;8.68;6.47;;;19.60;99.90;;;;;;4124138;28;20504;-74
2021/07/25 05:33:57;;;;;;;13.57;7.60;;;19.50;99.90;;;;;;4136176;28;20061;-73
2021/07/25 05:35:58;;;;;;;13.73;7.80;;;19.60;99.90;;;;;;4122557;28;20124;-73
2021/07/25 05:37:59;;;;;;;10.55;7.03;;;19.60;99.90;;;;;;4144089;28;20034;-73
2021/07/25 05:40:00;;;;;;;13.60;7.57;;;19.60;99.90;;;;;;4153835;28;20030;-73
2021/07/25 05:42:00;;;;;;;12.13;6.90;;;19.50;99.90;;;;;;4129194;28;20062;-73
2021/07/25 05:44:01;;;;;;;12.43;7.53;;;19.60;99.90;;;;;;4142247;28;20038;-73
2021/07/25 05:46:02;;;;;;;9.63;6.70;;;19.60;99.90;;;;;;4126831;28;20064;-73
2021/07/25 05:48:03;;;;;;;13.68;7.95;;;19.50;99.90;;;;;;4124558;28;20030;-73
2021/07/25 05:50:05;;;;;;;10.55;7.22;;;19.60;99.90;;;;;;4125798;28;20042;-73
2021/07/25 05:52:06;;;;;;;11.68;7.07;;;19.50;99.90;;;;;;4122154;28;20664;-73
2021/07/25 05:54:07;;;;;;;10.73;6.50;;;19.50;99.90;;;;;;4140734;28;20592;-73
2021/07/25 05:56:09;;;;;;;8.90;6.32;;;19.50;99.90;;;;;;4143297;28;20112;-73
2021/07/25 05:58:10;;;;;;;14.35;6.07;;;19.50;99.90;;;;;;4124122;28;20110;-73
2021/07/25 06:00:10;;;;;;;9.73;6.57;;;19.50;99.90;;;;;;4145089;28;20478;-73
2021/07/25 06:02:11;;;;;;;9.50;5.88;;;19.50;99.90;;;;;;4127201;28;20043;-73
2021/07/25 06:04:12;;;;;;;10.15;5.95;;;19.50;99.90;;;;;;4147209;28;20614;-73
2021/07/25 06:06:12;;;;;;;8.63;5.70;;;19.60;99.90;;;;;;4147186;28;20025;-73
2021/07/25 06:08:13;;;;;;;8.68;5.07;;;19.60;99.90;;;;;;4145676;28;20577;-73
2021/07/25 06:10:14;;;;;;;8.50;5.22;;;19.70;99.90;;;;;;4141284;28;20470;-73
2021/07/25 06:12:16;;;;;;;8.70;5.30;;;19.70;99.90;;;;;;4151033;28;20037;-73
2021/07/25 06:14:16;;;;;;;8.93;5.70;;;19.90;99.90;;;;;;4144551;28;20040;-73
2021/07/25 06:16:17;;;;;;;8.15;5.10;;;20.10;99.90;;;;;;4143774;28;20102;-73
2021/07/25 06:18:17;;;;;;;7.20;4.80;;;20.40;99.90;;;;;;4145100;28;20042;-73
2021/07/25 06:20:19;;;;;;;9.85;4.25;;;20.80;99.90;;;;;;4126789;28;20685;-73
2021/07/25 06:22:20;;;;;;;7.60;4.30;;;21.10;99.90;;;;;;4132816;28;20085;-73
2021/07/25 06:24:20;;;;;;;6.63;4.28;;;21.40;99.90;;;;;;4119444;28;20051;-73
2021/07/25 06:26:22;;;;;;;7.95;4.57;;;21.70;99.90;;;;;;4137587;28;20065;-74
2021/07/25 06:28:22;;;;;;;6.13;3.97;;;22.00;99.90;;;;;;4136535;28;20033;-73
2021/07/25 06:30:24;;;;;;;9.63;3.92;;;22.40;99.90;;;;;;4150253;28;20557;-73
2021/07/25 06:32:25;;;;;;;8.75;4.28;;;22.60;99.90;;;;;;4128868;28;20121;-73
2021/07/25 06:34:25;;;;;;;12.75;4.05;;;22.80;99.90;;;;;;4146300;28;20068;-73
2021/07/25 06:36:26;;;;;;;5.32;3.90;;;23.10;99.90;;;;;;4144733;28;20478;-74
2021/07/25 06:38:27;;;;;;;6.22;4.28;;;23.30;99.90;;;;;;4130406;28;20030;-74
2021/07/25 06:40:29;;;;;;;7.10;4.15;;;23.40;99.90;;;;;;4140271;28;20057;-74
2021/07/25 06:42:30;;;;;;;10.57;4.75;;;23.50;99.90;;;;;;4148783;28;20038;-74
2021/07/25 06:44:31;;;;;;;5.57;3.83;;;23.30;99.90;;;;;;4137427;28;20111;-74
2021/07/25 06:46:32;;;;;;;7.43;4.05;;;23.20;99.90;;;;;;4141924;28;20324;-74
2021/07/25 06:48:33;;;;;;;6.45;3.95;;;23.00;99.90;;;;;;4140977;28;20490;-73
2021/07/25 06:50:34;;;;;;;11.73;4.47;;;22.80;99.90;;;;;;4140860;28;20116;-73
2021/07/25 06:52:34;;;;;;;5.93;3.95;;;22.80;99.90;;;;;;4146770;28;20037;-73
2021/07/25 06:54:35;;;;;;;4.93;3.53;;;22.70;99.90;;;;;;4125085;28;20083;-74
2021/07/25 06:56:35;;;;;;;8.43;4.18;;;22.70;99.90;;;;;;4138705;28;20036;-74
2021/07/25 06:58:36;;;;;;;4.10;3.42;;;22.50;99.90;;;;;;4141591;28;20107;-73
2021/07/25 07:00:36;;;;;;;5.55;3.72;;;22.50;99.90;;;;;;4143267;28;20056;-74
2021/07/25 07:02:44;;;;;;;5.25;3.47;;;22.40;99.90;;;;;;4132156;28;20041;-73
2021/07/25 07:04:45;;;;;;;6.05;3.58;;;22.20;99.90;;;;;;4147297;28;20073;-73
2021/07/25 07:06:45;;;;;;;9.35;3.90;;;22.20;99.90;;;;;;4121065;28;20046;-73
2021/07/25 07:08:46;;;;;;;6.45;3.83;;;22.10;99.90;;;;;;4142646;28;20502;-73
2021/07/25 07:10:47;;;;;;;8.80;4.00;;;21.90;99.90;;;;;;4145143;28;20034;-74
2021/07/25 07:12:48;;;;;;;7.93;3.70;;;21.90;99.90;;;;;;4148567;28;20053;-74
2021/07/25 07:14:49;;;;;;;4.72;3.20;;;21.90;99.90;;;;;;4131212;28;20461;-74
2021/07/25 07:16:49;;;;;;;6.00;3.53;;;21.80;99.90;;;;;;4155719;28;20227;-74
2021/07/25 07:18:50;;;;;;;7.18;3.85;;;21.80;99.90;;;;;;4146582;28;20041;-74
2021/07/25 07:20:51;;;;;;;5.55;3.58;;;21.80;99.90;;;;;;4143032;28;21156;-73
2021/07/25 07:23:00;;;;;;;5.13;3.42;;;21.80;99.90;;;;;;4152422;28;20132;-74
2021/07/25 07:25:03;;;;;;;6.50;3.40;;;21.80;99.90;;;;;;4139127;28;20038;-74
2021/07/25 07:27:03;;;;;;;4.70;3.00;;;21.80;99.90;;;;;;4144338;28;20034;-74
2021/07/25 07:29:04;;;;;;;5.18;3.40;;;21.80;99.90;;;;;;4138255;28;20057;-74
2021/07/25 07:31:05;;;;;;;6.95;3.22;;;21.90;99.90;;;;;;4122355;28;20061;-74
2021/07/25 07:33:09;;;;;;;4.45;3.33;;;21.90;99.90;;;;;;4149914;28;20105;-74
2021/07/25 07:35:10;;;;;;;10.20;3.45;;;21.90;99.90;;;;;;4141739;28;20030;-74
2021/07/25 07:37:10;;;;;;;6.63;3.10;;;21.90;99.90;;;;;;4147770;28;20045;-74
2021/07/25 07:39:11;;;;;;;6.97;3.60;;;21.90;99.90;;;;;;4135587;28;20049;-74
2021/07/25 07:41:11;;;;;;;6.30;3.47;;;21.90;99.90;;;;;;4143025;28;20044;-74
2021/07/25 07:43:14;;;;;;;6.25;3.60;;;21.80;99.90;;;;;;4143549;28;20048;-74
2021/07/25 07:45:18;;;;;;;;;;;21.80;99.90;;;;;;4144694;28;20129;-74
2021/07/25 07:47:19;;;;;;;7.15;3.20;;;21.80;99.90;;;;;;4125702;28;20309;-74
2021/07/25 07:49:19;;;;;;;7.30;3.30;;;21.90;99.90;;;;;;4146355;28;20125;-74
2021/07/25 07:51:20;;;;;;;5.95;3.47;;;21.90;99.90;;;;;;4140298;28;20038;-74
2021/07/25 07:53:20;;;;;;;4.15;2.70;;;21.90;99.90;;;;;;4143784;28;20061;-74
2021/07/25 07:55:21;;;;;;;7.82;3.63;;;21.90;99.90;;;;;;4141831;28;20038;-74
2021/07/25 07:57:22;;;;;;;11.52;3.95;;;22.00;99.90;;;;;;4124139;28;20042;-74
2021/07/25 07:59:22;;;;;;;5.40;3.10;;;22.00;99.90;;;;;;4144406;28;20022;-74
2021/07/25 08:01:23;;;;;;;6.90;3.70;;;22.10;99.90;;;;;;4146505;28;20080;-74
2021/07/25 08:03:23;;;;;;;6.38;3.30;;;22.00;99.90;;;;;;4140970;28;20039;-74
2021/07/25 08:05:24;;;;;;;4.47;3.00;;;22.10;99.90;;;;;;4128571;28;20034;-74
2021/07/25 08:07:25;;;;;;;7.68;3.38;;;22.20;99.90;;;;;;4144851;28;20376;-74
2021/07/25 08:09:25;;;;;;;5.60;3.30;;;22.20;99.90;;;;;;4126918;28;20035;-74
2021/07/25 08:11:26;;;;;;;6.60;3.08;;;22.20;99.90;;;;;;4124760;28;20033;-74
2021/07/25 08:13:26;;;;;;;4.82;2.95;;;22.20;99.90;;;;;;4122317;28;20046;-73
2021/07/25 08:15:27;;;;;;;6.05;3.20;;;22.30;99.90;;;;;;4129875;28;20034;-72
2021/07/25 08:17:28;;;;;;;4.32;2.88;;;22.30;99.90;;;;;;4131494;28;20058;-72
2021/07/25 08:19:28;;;;;;;5.55;2.90;;;22.40;99.90;;;;;;4148253;28;20065;-72
2021/07/25 08:21:29;;;;;;;4.72;2.85;;;22.40;99.90;;;;;;4145596;28;20038;-72
2021/07/25 08:23:30;;;;;;;5.70;3.10;;;22.50;99.90;;;;;;4122380;28;20118;-73
2021/07/25 08:25:31;;;;;;;5.88;3.17;;;22.50;99.90;;;;;;4142751;28;20069;-72
2021/07/25 08:27:31;;;;;;;4.50;2.60;;;22.60;99.90;;;;;;4140681;28;20040;-72
2021/07/25 08:29:32;;;;;;;5.40;3.40;;;22.60;99.90;;;;;;4148152;28;20471;-72
2021/07/25 08:31:34;;;;;;;5.30;3.05;;;22.70;99.90;;;;;;4132864;28;20030;-72
2021/07/25 08:33:34;;;;;;;4.90;3.05;;;22.70;99.90;;;;;;4141345;28;20041;-72
2021/07/25 08:35:35;;;;;;;6.93;3.28;;;22.80;99.90;;;;;;4140778;28;20674;-72
2021/07/25 08:37:35;;;;;;;7.38;3.45;;;22.80;99.90;;;;;;4129051;28;20058;-72
2021/07/25 08:39:36;;;;;;;4.75;2.92;;;22.90;99.90;;;;;;4142834;28;20034;-72
2021/07/25 08:41:59;;;;;;;5.82;2.85;;;23.00;99.90;;;;;;4106852;28;20038;-72
2021/07/25 08:44:40;;;;;;;5.38;3.10;;;23.10;99.90;;;;;;4123303;28;20502;-72
2021/07/25 08:46:43;;;;;;;7.30;3.50;;;23.20;99.90;;;;;;4147554;28;20041;-72
2021/07/25 08:48:46;;;;;;;5.68;3.10;;;23.20;99.90;;;;;;4143998;28;20037;-75
2021/07/25 08:51:02;;;;;;;8.43;3.40;;;23.30;99.90;;;;;;4142361;28;20042;-72
2021/07/25 08:53:04;;;;;;;6.82;3.03;;;23.40;99.90;;;;;;4143821;28;20038;-72
2021/07/25 08:55:14;;;;;;;8.10;3.00;;;23.50;99.90;;;;;;4144657;28;20030;-72
2021/07/25 08:57:18;;;;;;;5.85;3.25;;;23.60;99.90;;;;;;4145837;28;20045;-71
2021/07/25 08:59:19;;;;;;;7.15;3.15;;;23.70;99.90;;;;;;4148633;28;20057;-72
2021/07/25 09:01:20;;;;;;;5.57;3.22;;;23.80;99.90;;;;;;4140655;28;20042;-73
2021/07/25 09:03:21;;;;;;;5.53;3.22;;;23.90;99.90;;;;;;4140207;28;20066;-72
2021/07/25 09:05:22;;;;;;;8.40;2.90;;;24.00;99.90;;;;;;4120518;28;20030;-72
2021/07/25 09:07:28;;;;;;;5.57;2.85;;;24.00;99.90;;;;;;4148028;28;20030;-72
2021/07/25 09:09:29;;;;;;;6.13;2.88;;;24.10;99.90;;;;;;4144627;28;20045;-73
2021/07/25 09:11:30;;;;;;;3.72;2.35;;;24.20;99.90;;;;;;4143453;28;20435;-73
2021/07/25 09:13:30;;;;;;;5.65;3.22;;;24.20;99.90;;;;;;4141950;28;20030;-73
2021/07/25 09:15:34;;;;;;;5.10;2.95;;;24.30;99.90;;;;;;4140812;28;20041;-73
2021/07/25 09:17:35;;;;;;;5.45;2.90;;;24.40;99.90;;;;;;4138027;28;20061;-72
2021/07/25 09:19:55;;;;;;;9.88;3.40;;;24.50;99.90;;;;;;4147070;28;20558;-73
2021/07/25 09:21:56;;;;;;;6.22;3.00;;;24.60;99.90;;;;;;4140841;28;20535;-72
2021/07/25 09:24:16;;;;;;;6.80;2.90;;;24.70;99.90;;;;;;4120695;28;20093;-72
2021/07/25 09:26:16;;;;;;;4.28;2.67;;;24.90;99.90;;;;;;4142300;28;20095;-72
2021/07/25 09:28:17;;;;;;;6.38;2.67;;;25.00;99.90;;;;;;4142691;28;20022;-72
2021/07/25 09:30:21;;;;;;;4.47;2.80;;;25.10;99.90;;;;;;4147607;28;20034;-74
2021/07/25 09:32:22;;;;;;;4.45;2.80;;;25.10;99.90;;;;;;4137798;28;20548;-75
2021/07/25 09:34:38;;;;;;;4.18;2.47;;;25.20;99.90;;;;;;4140515;28;20046;-75
2021/07/25 09:36:39;;;;;;;5.80;2.88;;;25.30;99.90;;;;;;4118593;28;20045;-75
2021/07/25 09:38:42;;;;;;;3.00;2.25;;;25.40;99.90;;;;;;4137784;28;20042;-75
2021/07/25 09:40:44;;;;;;;2.90;2.05;;;25.50;99.90;;;;;;4139595;28;20076;-76
2021/07/25 09:42:44;;;;;;;4.28;2.40;;;25.50;99.90;;;;;;4141067;28;20038;-75
2021/07/25 09:44:48;;;;;;;7.50;2.80;;;25.60;99.90;;;;;;4127114;28;20034;-74
2021/07/25 09:46:49;;;;;;;2.97;2.28;;;25.70;99.90;;;;;;4148370;28;20030;-75
2021/07/25 09:48:57;;;;;;;4.75;2.60;;;25.70;99.90;;;;;;4139118;28;20813;-75
2021/07/25 09:51:02;;;;;;;3.95;2.42;;;25.70;99.90;;;;;;4142847;28;20040;-75
2021/07/25 09:53:03;;;;;;;3.70;2.33;;;25.80;99.90;;;;;;4123341;28;20652;-75
2021/07/25 09:55:09;;;;;;;4.95;2.60;;;25.80;99.90;;;;;;4147159;28;20556;-73
2021/07/25 09:57:11;;;;;;;5.40;2.70;;;25.90;99.90;;;;;;4145244;28;20029;-73
2021/07/25 09:59:25;;;;;;;5.18;2.28;;;25.90;99.90;;;;;;4111424;28;20042;-74
2021/07/25 10:01:41;;;;;;;3.75;2.30;;;25.90;99.90;;;;;;4150665;28;20037;-74
2021/07/25 10:03:42;;;;;;;4.38;2.40;;;25.90;99.90;;;;;;4141589;28;20550;-74
2021/07/25 10:05:47;;;;;;;5.10;2.75;;;25.90;99.90;;;;;;4141193;28;20078;-73
2021/07/25 10:07:49;;;;;;;5.15;2.38;;;26.00;99.90;;;;;;4120806;28;20145;-74
2021/07/25 10:10:00;;;;;;;3.75;2.05;;;26.10;99.90;;;;;;4134833;28;20443;-74
2021/07/25 10:12:03;;;;;;;4.82;2.30;;;26.20;99.90;;;;;;4143086;28;20427;-74
2021/07/25 10:14:04;;;;;;;2.17;1.80;;;26.20;99.90;;;;;;4140568;28;20030;-74
2021/07/25 10:16:05;;;;;;;3.30;2.22;;;26.30;99.90;;;;;;4146695;28;20030;-74
2021/07/25 10:18:07;;;;;;;7.95;1.83;;;26.30;99.90;;;;;;4141362;28;20034;-74
2021/07/25 10:20:09;;;;;;;4.80;2.30;;;26.30;99.90;;;;;;4128883;28;20030;-74
2021/07/25 10:22:13;;;;;;;3.25;2.25;;;26.40;99.90;;;;;;4121348;28;20426;-73
2021/07/25 10:24:15;;;;;;;3.42;2.10;;;26.40;99.90;;;;;;4146442;28;20034;-74
2021/07/25 10:26:17;;;;;;;5.75;2.00;;;26.50;99.90;;;;;;4126246;28;20034;-74
2021/07/25 10:28:20;;;;;;;2.15;1.85;;;26.40;99.90;;;;;;4140281;28;20031;-73
2021/07/25 10:30:21;;;;;;;5.18;2.50;;;26.50;99.90;;;;;;4136132;28;20057;-73
2021/07/25 10:32:22;;;;;;;2.20;2.00;;;26.40;99.90;;;;;;4124773;28;20789;-74
2021/07/25 10:34:23;;;;;;;5.90;2.80;;;26.50;99.90;;;;;;4140177;28;20041;-73